sensor_id;sensor_type;location;lat;lon;timestamp;pressure;altitude;pressure_sealevel;temperature;humidity
11672;BME280;5892;43.412;24.612;2024-02-21T00:01:45;100924.94;;;5.54;73.06
11672;BME280;5892;43.412;24.612;2024-02-21T00:04:11;100929.34;;;5.52;73.38
11672;BME280;5892;43.412;24.612;2024-02-21T00:06:37;100935.28;;;5.54;73.03
11672;BME280;5892;43.412;24.612;2024-02-21T00:09:03;100934.63;;;5.48;73.42
11672;BME280;5892;43.412;24.612;2024-02-21T00:11:28;100936.41;;;5.48;73.55
11672;BME280;5892;43.412;24.612;2024-02-21T00:13:54;100932.06;;;5.48;73.46
11672;BME280;5892;43.412;24.612;2024-02-21T00:16:19;100933.88;;;5.46;73.36
11672;BME280;5892;43.412;24.612;2024-02-21T00:18:45;100924.31;;;5.48;73.18
11672;BME280;5892;43.412;24.612;2024-02-21T00:21:12;100916.19;;;5.39;73.17
11672;BME280;5892;43.412;24.612;2024-02-21T00:23:43;100927.13;;;5.44;73.57
11672;BME280;5892;43.412;24.612;2024-02-21T00:26:11;100920.09;;;5.47;73.74
11672;BME280;5892;43.412;24.612;2024-02-21T00:28:37;100912.44;;;5.46;73.20
11672;BME280;5892;43.412;24.612;2024-02-21T00:31:02;100920.03;;;5.49;73.45
11672;BME280;5892;43.412;24.612;2024-02-21T00:33:28;100915.81;;;5.46;73.48
11672;BME280;5892;43.412;24.612;2024-02-21T00:35:53;100914.94;;;5.47;73.70
11672;BME280;5892;43.412;24.612;2024-02-21T01:25:40;100855.72;;;4.68;74.59
11672;BME280;5892;43.412;24.612;2024-02-21T01:28:05;100849.63;;;4.71;74.55
11672;BME280;5892;43.412;24.612;2024-02-21T01:30:31;100857.69;;;4.63;74.94
11672;BME280;5892;43.412;24.612;2024-02-21T01:32:56;100859.28;;;4.66;74.82
11672;BME280;5892;43.412;24.612;2024-02-21T01:35:22;100872.09;;;4.67;74.45
11672;BME280;5892;43.412;24.612;2024-02-21T01:37:47;100863.50;;;4.48;75.23
11672;BME280;5892;43.412;24.612;2024-02-21T01:40:14;100860.63;;;4.33;76.53
11672;BME280;5892;43.412;24.612;2024-02-21T01:42:40;100863.16;;;4.35;75.82
11672;BME280;5892;43.412;24.612;2024-02-21T01:45:09;100866.78;;;4.31;75.97
11672;BME280;5892;43.412;24.612;2024-02-21T01:47:36;100863.31;;;4.32;76.33
11672;BME280;5892;43.412;24.612;2024-02-21T01:50:02;100865.59;;;4.38;76.15
11672;BME280;5892;43.412;24.612;2024-02-21T01:52:29;100856.00;;;4.42;76.03
11672;BME280;5892;43.412;24.612;2024-02-21T01:54:57;100851.84;;;4.39;76.16
11672;BME280;5892;43.412;24.612;2024-02-21T01:57:24;100857.53;;;4.46;75.48
11672;BME280;5892;43.412;24.612;2024-02-21T01:59:50;100855.84;;;4.46;75.93
11672;BME280;5892;43.412;24.612;2024-02-21T02:02:16;100854.22;;;4.44;75.71
11672;BME280;5892;43.412;24.612;2024-02-21T02:04:43;100853.78;;;4.34;76.02
11672;BME280;5892;43.412;24.612;2024-02-21T02:07:10;100858.06;;;4.33;75.11
11672;BME280;5892;43.412;24.612;2024-02-21T02:09:36;100853.13;;;4.29;75.08
11672;BME280;5892;43.412;24.612;2024-02-21T02:12:02;100864.44;;;4.25;75.26
11672;BME280;5892;43.412;24.612;2024-02-21T02:14:27;100861.75;;;4.28;75.79
11672;BME280;5892;43.412;24.612;2024-02-21T02:16:52;100863.59;;;4.24;75.82
11672;BME280;5892;43.412;24.612;2024-02-21T02:19:18;100860.97;;;4.26;75.23
11672;BME280;5892;43.412;24.612;2024-02-21T02:21:50;100859.22;;;4.26;76.47
11672;BME280;5892;43.412;24.612;2024-02-21T02:24:22;100854.34;;;4.20;76.79
11672;BME280;5892;43.412;24.612;2024-02-21T02:26:53;100853.44;;;4.21;75.91
11672;BME280;5892;43.412;24.612;2024-02-21T02:29:18;100859.16;;;4.28;76.60
11672;BME280;5892;43.412;24.612;2024-02-21T03:19:31;100837.69;;;4.68;74.44
11672;BME280;5892;43.412;24.612;2024-02-21T03:21:56;100854.63;;;4.74;75.17
11672;BME280;5892;43.412;24.612;2024-02-21T03:24:22;100852.91;;;4.75;74.80
11672;BME280;5892;43.412;24.612;2024-02-21T03:26:48;100846.97;;;4.72;74.53
11672;BME280;5892;43.412;24.612;2024-02-21T03:29:16;100844.00;;;4.82;75.41
11672;BME280;5892;43.412;24.612;2024-02-21T03:31:43;100851.09;;;4.77;76.16
11672;BME280;5892;43.412;24.612;2024-02-21T03:34:11;100853.34;;;4.84;74.72
11672;BME280;5892;43.412;24.612;2024-02-21T03:36:37;100849.59;;;4.91;75.85
11672;BME280;5892;43.412;24.612;2024-02-21T03:39:02;100846.53;;;5.02;75.15
11672;BME280;5892;43.412;24.612;2024-02-21T03:41:28;100856.00;;;5.02;74.57
11672;BME280;5892;43.412;24.612;2024-02-21T03:43:54;100850.59;;;4.87;74.48
11672;BME280;5892;43.412;24.612;2024-02-21T03:46:19;100855.69;;;4.89;74.70
11672;BME280;5892;43.412;24.612;2024-02-21T03:48:45;100853.81;;;4.93;73.68
11672;BME280;5892;43.412;24.612;2024-02-21T03:51:11;100856.44;;;4.91;75.00
11672;BME280;5892;43.412;24.612;2024-02-21T03:53:36;100853.06;;;4.90;74.07
11672;BME280;5892;43.412;24.612;2024-02-21T03:56:02;100856.13;;;4.99;75.07
11672;BME280;5892;43.412;24.612;2024-02-21T03:58:29;100860.16;;;5.04;74.52
11672;BME280;5892;43.412;24.612;2024-02-21T04:00:56;100857.38;;;5.09;74.80
11672;BME280;5892;43.412;24.612;2024-02-21T04:03:23;100864.91;;;5.14;75.20
11672;BME280;5892;43.412;24.612;2024-02-21T04:05:48;100855.78;;;5.25;75.60
11672;BME280;5892;43.412;24.612;2024-02-21T04:08:14;100843.88;;;5.23;75.17
11672;BME280;5892;43.412;24.612;2024-02-21T04:10:39;100859.91;;;5.29;74.71
11672;BME280;5892;43.412;24.612;2024-02-21T04:13:06;100869.03;;;5.18;74.81
11672;BME280;5892;43.412;24.612;2024-02-21T04:15:32;100864.75;;;5.17;73.61
11672;BME280;5892;43.412;24.612;2024-02-21T04:17:57;100867.22;;;5.20;73.45
11672;BME280;5892;43.412;24.612;2024-02-21T04:20:23;100868.09;;;5.19;74.44
11672;BME280;5892;43.412;24.612;2024-02-21T04:22:48;100861.78;;;5.26;73.98
11672;BME280;5892;43.412;24.612;2024-02-21T04:25:14;100856.41;;;5.12;74.98
11672;BME280;5892;43.412;24.612;2024-02-21T04:27:40;100857.31;;;5.29;74.56
11672;BME280;5892;43.412;24.612;2024-02-21T04:30:06;100859.53;;;5.37;74.63
11672;BME280;5892;43.412;24.612;2024-02-21T04:32:32;100867.97;;;5.41;74.69
11672;BME280;5892;43.412;24.612;2024-02-21T04:34:57;100856.88;;;5.58;74.37
11672;BME280;5892;43.412;24.612;2024-02-21T04:37:23;100871.59;;;5.56;73.96
11672;BME280;5892;43.412;24.612;2024-02-21T04:39:49;100873.94;;;5.60;73.40
11672;BME280;5892;43.412;24.612;2024-02-21T04:42:15;100869.28;;;5.50;74.56
11672;BME280;5892;43.412;24.612;2024-02-21T04:44:41;100870.72;;;5.55;73.97
11672;BME280;5892;43.412;24.612;2024-02-21T04:47:06;100867.06;;;5.61;74.56
11672;BME280;5892;43.412;24.612;2024-02-21T04:49:32;100861.41;;;5.53;75.04
11672;BME280;5892;43.412;24.612;2024-02-21T04:51:58;100860.78;;;5.47;74.88
11672;BME280;5892;43.412;24.612;2024-02-21T04:54:23;100869.53;;;5.62;74.13
11672;BME280;5892;43.412;24.612;2024-02-21T04:56:49;100869.47;;;5.64;73.78
11672;BME280;5892;43.412;24.612;2024-02-21T04:59:14;100864.91;;;5.69;73.57
11672;BME280;5892;43.412;24.612;2024-02-21T05:01:40;100867.28;;;5.74;73.78
11672;BME280;5892;43.412;24.612;2024-02-21T05:04:05;100858.66;;;5.75;73.25
11672;BME280;5892;43.412;24.612;2024-02-21T05:06:41;100871.31;;;5.79;73.51
11672;BME280;5892;43.412;24.612;2024-02-21T05:09:09;100874.97;;;5.75;73.17
11672;BME280;5892;43.412;24.612;2024-02-21T05:11:38;100873.34;;;5.73;73.69
11672;BME280;5892;43.412;24.612;2024-02-21T05:14:04;100864.91;;;5.69;73.79
11672;BME280;5892;43.412;24.612;2024-02-21T05:16:32;100876.47;;;5.79;73.34
11672;BME280;5892;43.412;24.612;2024-02-21T05:18:57;100881.34;;;5.85;72.76
11672;BME280;5892;43.412;24.612;2024-02-21T05:21:24;100881.44;;;5.84;73.00
11672;BME280;5892;43.412;24.612;2024-02-21T05:23:51;100872.69;;;5.86;72.71
11672;BME280;5892;43.412;24.612;2024-02-21T05:26:23;100875.00;;;5.93;73.08
11672;BME280;5892;43.412;24.612;2024-02-21T05:28:49;100876.63;;;6.13;72.42
11672;BME280;5892;43.412;24.612;2024-02-21T05:31:20;100880.06;;;6.31;72.08
11672;BME280;5892;43.412;24.612;2024-02-21T05:33:46;100877.91;;;6.39;71.89
11672;BME280;5892;43.412;24.612;2024-02-21T05:36:12;100878.56;;;6.42;71.43
11672;BME280;5892;43.412;24.612;2024-02-21T05:38:38;100884.34;;;6.48;71.16
11672;BME280;5892;43.412;24.612;2024-02-21T05:41:04;100884.50;;;6.62;71.21
11672;BME280;5892;43.412;24.612;2024-02-21T05:43:31;100880.88;;;6.82;70.74
11672;BME280;5892;43.412;24.612;2024-02-21T05:45:57;100879.66;;;7.05;69.79
11672;BME280;5892;43.412;24.612;2024-02-21T05:48:23;100873.44;;;7.25;69.60
11672;BME280;5892;43.412;24.612;2024-02-21T05:50:48;100872.69;;;7.39;69.01
11672;BME280;5892;43.412;24.612;2024-02-21T05:53:15;100883.56;;;7.46;68.21
11672;BME280;5892;43.412;24.612;2024-02-21T05:55:42;100875.38;;;7.38;68.77
11672;BME280;5892;43.412;24.612;2024-02-21T05:58:07;100882.38;;;7.35;68.64
11672;BME280;5892;43.412;24.612;2024-02-21T06:00:37;100885.94;;;7.17;68.82
11672;BME280;5892;43.412;24.612;2024-02-21T06:03:02;100889.47;;;7.16;69.03
11672;BME280;5892;43.412;24.612;2024-02-21T06:05:28;100897.31;;;7.14;68.88
11672;BME280;5892;43.412;24.612;2024-02-21T06:07:53;100901.63;;;7.14;68.92
11672;BME280;5892;43.412;24.612;2024-02-21T06:10:19;100897.44;;;7.11;68.92
11672;BME280;5892;43.412;24.612;2024-02-21T06:12:44;100909.06;;;7.20;69.19
11672;BME280;5892;43.412;24.612;2024-02-21T06:15:09;100906.88;;;7.12;69.02
11672;BME280;5892;43.412;24.612;2024-02-21T06:17:35;100902.63;;;7.11;69.41
11672;BME280;5892;43.412;24.612;2024-02-21T06:20:00;100913.69;;;6.97;70.49
11672;BME280;5892;43.412;24.612;2024-02-21T06:22:26;100913.72;;;7.13;69.79
11672;BME280;5892;43.412;24.612;2024-02-21T06:24:51;100910.97;;;7.16;69.37
11672;BME280;5892;43.412;24.612;2024-02-21T06:27:19;100920.00;;;7.25;69.17
11672;BME280;5892;43.412;24.612;2024-02-21T06:29:46;100917.06;;;7.31;68.47
11672;BME280;5892;43.412;24.612;2024-02-21T06:32:11;100916.09;;;7.34;68.86
11672;BME280;5892;43.412;24.612;2024-02-21T06:34:37;100919.75;;;7.46;67.93
11672;BME280;5892;43.412;24.612;2024-02-21T06:37:03;100919.19;;;7.41;68.21
11672;BME280;5892;43.412;24.612;2024-02-21T06:39:29;100915.94;;;7.37;68.45
11672;BME280;5892;43.412;24.612;2024-02-21T06:41:54;100918.75;;;7.48;68.91
11672;BME280;5892;43.412;24.612;2024-02-21T06:44:21;100918.28;;;7.58;67.97
11672;BME280;5892;43.412;24.612;2024-02-21T06:46:47;100916.81;;;7.68;68.39
11672;BME280;5892;43.412;24.612;2024-02-21T06:49:12;100917.50;;;7.71;68.26
11672;BME280;5892;43.412;24.612;2024-02-21T06:51:44;100915.31;;;7.80;67.74
11672;BME280;5892;43.412;24.612;2024-02-21T06:54:09;100918.16;;;7.91;67.47
11672;BME280;5892;43.412;24.612;2024-02-21T06:56:36;100921.78;;;8.03;66.70
11672;BME280;5892;43.412;24.612;2024-02-21T06:59:01;100922.47;;;8.06;67.28
11672;BME280;5892;43.412;24.612;2024-02-21T07:01:29;100922.59;;;8.19;66.06
11672;BME280;5892;43.412;24.612;2024-02-21T07:03:54;100923.09;;;8.26;66.50
11672;BME280;5892;43.412;24.612;2024-02-21T07:06:19;100922.25;;;8.25;66.43
11672;BME280;5892;43.412;24.612;2024-02-21T07:08:45;100925.59;;;8.43;65.70
11672;BME280;5892;43.412;24.612;2024-02-21T07:11:11;100927.16;;;8.46;65.52
11672;BME280;5892;43.412;24.612;2024-02-21T07:13:37;100923.03;;;8.42;65.28
11672;BME280;5892;43.412;24.612;2024-02-21T07:16:03;100928.38;;;8.55;65.25
11672;BME280;5892;43.412;24.612;2024-02-21T07:18:28;100933.47;;;8.56;65.36
11672;BME280;5892;43.412;24.612;2024-02-21T07:20:54;100930.69;;;8.59;66.10
11672;BME280;5892;43.412;24.612;2024-02-21T07:23:20;100936.22;;;8.53;65.48
11672;BME280;5892;43.412;24.612;2024-02-21T07:25:47;100928.75;;;8.63;65.25
11672;BME280;5892;43.412;24.612;2024-02-21T07:28:12;100933.28;;;8.59;65.21
11672;BME280;5892;43.412;24.612;2024-02-21T07:30:39;100927.13;;;8.76;65.17
11672;BME280;5892;43.412;24.612;2024-02-21T07:33:04;100935.06;;;8.87;64.68
11672;BME280;5892;43.412;24.612;2024-02-21T07:35:29;100935.25;;;8.84;64.73
11672;BME280;5892;43.412;24.612;2024-02-21T07:37:55;100935.72;;;8.91;64.55
11672;BME280;5892;43.412;24.612;2024-02-21T07:40:20;100941.38;;;8.83;65.09
11672;BME280;5892;43.412;24.612;2024-02-21T07:42:46;100938.78;;;8.98;64.44
11672;BME280;5892;43.412;24.612;2024-02-21T07:45:11;100941.59;;;9.09;64.11
11672;BME280;5892;43.412;24.612;2024-02-21T07:47:37;100935.66;;;9.21;63.85
11672;BME280;5892;43.412;24.612;2024-02-21T07:50:03;100930.34;;;9.23;64.27
11672;BME280;5892;43.412;24.612;2024-02-21T07:52:29;100934.97;;;9.47;63.38
11672;BME280;5892;43.412;24.612;2024-02-21T07:54:55;100931.50;;;9.60;62.36
11672;BME280;5892;43.412;24.612;2024-02-21T07:57:20;100928.13;;;9.73;61.68
11672;BME280;5892;43.412;24.612;2024-02-21T07:59:46;100926.84;;;9.66;62.19
11672;BME280;5892;43.412;24.612;2024-02-21T08:02:16;100929.84;;;9.87;61.20
11672;BME280;5892;43.412;24.612;2024-02-21T08:04:43;100933.97;;;10.04;61.81
11672;BME280;5892;43.412;24.612;2024-02-21T08:07:09;100923.78;;;10.13;60.88
11672;BME280;5892;43.412;24.612;2024-02-21T08:09:35;100933.28;;;10.27;59.10
11672;BME280;5892;43.412;24.612;2024-02-21T08:12:03;100930.97;;;10.37;58.85
11672;BME280;5892;43.412;24.612;2024-02-21T08:14:29;100934.72;;;10.46;57.79
11672;BME280;5892;43.412;24.612;2024-02-21T08:16:54;100928.19;;;10.26;58.66
11672;BME280;5892;43.412;24.612;2024-02-21T08:19:20;100928.59;;;10.47;58.39
11672;BME280;5892;43.412;24.612;2024-02-21T08:21:46;100934.09;;;10.55;58.02
11672;BME280;5892;43.412;24.612;2024-02-21T08:24:14;100919.50;;;10.40;57.97
11672;BME280;5892;43.412;24.612;2024-02-21T08:26:44;100926.91;;;10.46;58.26
11672;BME280;5892;43.412;24.612;2024-02-21T08:29:12;100916.84;;;10.67;57.14
11672;BME280;5892;43.412;24.612;2024-02-21T08:31:38;100921.53;;;10.87;57.19
11672;BME280;5892;43.412;24.612;2024-02-21T08:34:03;100922.66;;;10.96;56.97
11672;BME280;5892;43.412;24.612;2024-02-21T08:36:33;100916.47;;;11.23;55.51
11672;BME280;5892;43.412;24.612;2024-02-21T08:39:00;100920.06;;;11.09;55.61
11672;BME280;5892;43.412;24.612;2024-02-21T08:41:26;100920.47;;;11.16;55.58
11672;BME280;5892;43.412;24.612;2024-02-21T08:43:53;100921.31;;;11.03;56.25
11672;BME280;5892;43.412;24.612;2024-02-21T08:46:22;100923.59;;;10.95;56.12
11672;BME280;5892;43.412;24.612;2024-02-21T08:48:50;100918.91;;;11.00;56.62
11672;BME280;5892;43.412;24.612;2024-02-21T08:51:16;100921.72;;;11.10;56.37
11672;BME280;5892;43.412;24.612;2024-02-21T08:53:42;100914.31;;;11.17;55.68
11672;BME280;5892;43.412;24.612;2024-02-21T08:56:07;100915.47;;;11.12;55.92
11672;BME280;5892;43.412;24.612;2024-02-21T08:58:36;100912.97;;;11.24;55.46
11672;BME280;5892;43.412;24.612;2024-02-21T09:01:03;100903.81;;;11.05;56.62
11672;BME280;5892;43.412;24.612;2024-02-21T09:03:34;100911.31;;;11.10;56.76
11672;BME280;5892;43.412;24.612;2024-02-21T09:06:00;100909.69;;;11.33;55.62
11672;BME280;5892;43.412;24.612;2024-02-21T09:08:26;100912.81;;;11.38;56.21
11672;BME280;5892;43.412;24.612;2024-02-21T09:10:52;100921.19;;;11.55;55.14
11672;BME280;5892;43.412;24.612;2024-02-21T09:13:18;100916.00;;;11.92;54.03
11672;BME280;5892;43.412;24.612;2024-02-21T09:15:43;100909.03;;;11.79;54.50
11672;BME280;5892;43.412;24.612;2024-02-21T09:18:09;100905.81;;;11.76;53.77
11672;BME280;5892;43.412;24.612;2024-02-21T09:20:35;100911.50;;;11.94;53.59
11672;BME280;5892;43.412;24.612;2024-02-21T09:23:01;100909.16;;;12.02;52.94
11672;BME280;5892;43.412;24.612;2024-02-21T09:25:26;100908.81;;;12.06;53.68
11672;BME280;5892;43.412;24.612;2024-02-21T09:27:54;100907.72;;;11.98;53.10
11672;BME280;5892;43.412;24.612;2024-02-21T09:30:19;100910.41;;;12.20;52.94
11672;BME280;5892;43.412;24.612;2024-02-21T09:32:45;100914.06;;;12.18;52.90
11672;BME280;5892;43.412;24.612;2024-02-21T09:35:10;100902.47;;;12.22;51.95
11672;BME280;5892;43.412;24.612;2024-02-21T09:37:40;100912.56;;;11.78;53.76
11672;BME280;5892;43.412;24.612;2024-02-21T09:40:06;100915.91;;;12.04;53.58
11672;BME280;5892;43.412;24.612;2024-02-21T09:42:39;100917.41;;;12.31;53.55
11672;BME280;5892;43.412;24.612;2024-02-21T09:45:08;100912.75;;;12.12;53.27
11672;BME280;5892;43.412;24.612;2024-02-21T09:50:24;100908.56;;;12.45;52.78
11672;BME280;5892;43.412;24.612;2024-02-21T09:52:51;100901.44;;;12.36;52.58
11672;BME280;5892;43.412;24.612;2024-02-21T09:55:17;100907.75;;;12.44;51.83
11672;BME280;5892;43.412;24.612;2024-02-21T09:57:44;100902.84;;;12.40;52.63
11672;BME280;5892;43.412;24.612;2024-02-21T10:00:10;100899.00;;;12.57;52.04
11672;BME280;5892;43.412;24.612;2024-02-21T10:02:36;100889.25;;;12.59;51.91
11672;BME280;5892;43.412;24.612;2024-02-21T10:05:02;100892.72;;;12.71;51.51
11672;BME280;5892;43.412;24.612;2024-02-21T10:07:30;100888.47;;;12.70;50.75
11672;BME280;5892;43.412;24.612;2024-02-21T10:10:05;100890.94;;;12.71;50.72
11672;BME280;5892;43.412;24.612;2024-02-21T10:12:31;100887.88;;;12.77;51.00
11672;BME280;5892;43.412;24.612;2024-02-21T10:15:01;100888.13;;;12.86;50.65
11672;BME280;5892;43.412;24.612;2024-02-21T10:17:26;100884.56;;;12.75;49.58
11672;BME280;5892;43.412;24.612;2024-02-21T10:19:52;100872.91;;;13.02;49.81
11672;BME280;5892;43.412;24.612;2024-02-21T10:22:17;100878.47;;;12.75;50.40
11672;BME280;5892;43.412;24.612;2024-02-21T10:24:43;100865.91;;;13.02;49.63
11672;BME280;5892;43.412;24.612;2024-02-21T10:27:09;100865.31;;;13.10;50.02
11672;BME280;5892;43.412;24.612;2024-02-21T10:29:38;100868.41;;;13.04;49.01
11672;BME280;5892;43.412;24.612;2024-02-21T10:32:11;100858.44;;;12.87;49.92
11672;BME280;5892;43.412;24.612;2024-02-21T10:34:38;100853.34;;;12.96;50.14
11672;BME280;5892;43.412;24.612;2024-02-21T10:37:05;100861.50;;;13.14;49.78
11672;BME280;5892;43.412;24.612;2024-02-21T10:39:41;100856.53;;;12.89;50.22
11672;BME280;5892;43.412;24.612;2024-02-21T10:42:10;100848.03;;;12.98;50.02
11672;BME280;5892;43.412;24.612;2024-02-21T10:44:40;100847.53;;;13.15;49.52
11672;BME280;5892;43.412;24.612;2024-02-21T10:47:10;100835.94;;;12.86;48.79
11672;BME280;5892;43.412;24.612;2024-02-21T10:49:40;100826.69;;;12.93;48.42
11672;BME280;5892;43.412;24.612;2024-02-21T10:54:43;100828.97;;;13.30;47.77
11672;BME280;5892;43.412;24.612;2024-02-21T10:57:10;100817.66;;;13.52;47.34
11672;BME280;5892;43.412;24.612;2024-02-21T10:59:39;100822.09;;;13.72;47.34
11672;BME280;5892;43.412;24.612;2024-02-21T11:02:05;100814.44;;;14.02;46.84
11672;BME280;5892;43.412;24.612;2024-02-21T11:04:31;100818.78;;;13.91;47.13
11672;BME280;5892;43.412;24.612;2024-02-21T11:07:01;100804.41;;;14.28;45.16
11672;BME280;5892;43.412;24.612;2024-02-21T11:09:32;100804.84;;;14.33;44.68
11672;BME280;5892;43.412;24.612;2024-02-21T11:11:58;100801.44;;;14.11;45.68
11672;BME280;5892;43.412;24.612;2024-02-21T11:14:27;100809.75;;;14.47;43.74
11672;BME280;5892;43.412;24.612;2024-02-21T11:16:52;100795.97;;;14.14;43.57
11672;BME280;5892;43.412;24.612;2024-02-21T11:19:21;100796.91;;;13.92;43.43
11672;BME280;5892;43.412;24.612;2024-02-21T11:21:48;100798.47;;;13.95;42.55
11672;BME280;5892;43.412;24.612;2024-02-21T11:24:13;100792.91;;;13.88;43.06
11672;BME280;5892;43.412;24.612;2024-02-21T11:26:40;100791.59;;;13.62;43.33
11672;BME280;5892;43.412;24.612;2024-02-21T11:29:08;100794.81;;;13.21;44.86
11672;BME280;5892;43.412;24.612;2024-02-21T11:31:39;100792.75;;;12.93;45.21
11672;BME280;5892;43.412;24.612;2024-02-21T11:34:11;100790.19;;;13.36;43.79
11672;BME280;5892;43.412;24.612;2024-02-21T11:36:46;100782.28;;;13.48;43.15
11672;BME280;5892;43.412;24.612;2024-02-21T11:39:20;100774.09;;;13.52;43.18
11672;BME280;5892;43.412;24.612;2024-02-21T11:41:47;100773.47;;;13.81;42.40
11672;BME280;5892;43.412;24.612;2024-02-21T11:44:13;100765.81;;;13.68;43.05
11672;BME280;5892;43.412;24.612;2024-02-21T11:46:39;100761.47;;;13.36;44.98
11672;BME280;5892;43.412;24.612;2024-02-21T11:49:04;100760.94;;;13.43;45.42
11672;BME280;5892;43.412;24.612;2024-02-21T11:51:30;100759.00;;;13.24;45.31
11672;BME280;5892;43.412;24.612;2024-02-21T11:53:55;100758.38;;;13.31;44.92
11672;BME280;5892;43.412;24.612;2024-02-21T11:56:22;100747.69;;;13.23;44.76
11672;BME280;5892;43.412;24.612;2024-02-21T11:58:48;100752.03;;;13.45;44.06
11672;BME280;5892;43.412;24.612;2024-02-21T12:01:14;100745.44;;;13.62;44.71
11672;BME280;5892;43.412;24.612;2024-02-21T12:03:40;100741.41;;;13.79;44.17
11672;BME280;5892;43.412;24.612;2024-02-21T12:06:07;100733.53;;;14.00;43.68
11672;BME280;5892;43.412;24.612;2024-02-21T12:08:45;100727.78;;;13.75;43.08
11672;BME280;5892;43.412;24.612;2024-02-21T12:11:36;100722.31;;;13.57;43.84
11672;BME280;5892;43.412;24.612;2024-02-21T12:14:03;100718.31;;;13.53;42.67
11672;BME280;5892;43.412;24.612;2024-02-21T12:16:30;100726.38;;;13.50;43.36
11672;BME280;5892;43.412;24.612;2024-02-21T12:18:58;100718.53;;;13.71;42.61
11672;BME280;5892;43.412;24.612;2024-02-21T12:21:29;100714.25;;;13.91;42.54
11672;BME280;5892;43.412;24.612;2024-02-21T12:23:55;100699.00;;;13.96;42.26
11672;BME280;5892;43.412;24.612;2024-02-21T12:26:22;100708.94;;;14.33;42.48
11672;BME280;5892;43.412;24.612;2024-02-21T12:28:47;100681.50;;;14.18;41.43
11672;BME280;5892;43.412;24.612;2024-02-21T12:31:13;100711.19;;;14.48;41.54
11672;BME280;5892;43.412;24.612;2024-02-21T12:33:39;100699.91;;;14.47;41.71
11672;BME280;5892;43.412;24.612;2024-02-21T12:36:05;100705.75;;;14.80;40.48
11672;BME280;5892;43.412;24.612;2024-02-21T12:38:31;100701.25;;;14.42;41.91
11672;BME280;5892;43.412;24.612;2024-02-21T12:40:56;100710.63;;;14.13;42.29
11672;BME280;5892;43.412;24.612;2024-02-21T12:43:25;100701.59;;;13.66;43.86
11672;BME280;5892;43.412;24.612;2024-02-21T12:45:52;100709.50;;;13.54;44.35
11672;BME280;5892;43.412;24.612;2024-02-21T12:48:18;100707.00;;;13.53;43.60
11672;BME280;5892;43.412;24.612;2024-02-21T12:50:50;100704.84;;;13.58;43.36
11672;BME280;5892;43.412;24.612;2024-02-21T12:53:20;100696.09;;;13.48;44.00
11672;BME280;5892;43.412;24.612;2024-02-21T12:55:50;100695.00;;;13.29;43.98
11672;BME280;5892;43.412;24.612;2024-02-21T13:32:06;100655.72;;;13.31;45.32
11672;BME280;5892;43.412;24.612;2024-02-21T13:34:32;100680.69;;;13.24;45.53
11672;BME280;5892;43.412;24.612;2024-02-21T13:36:57;100673.91;;;13.21;45.39
11672;BME280;5892;43.412;24.612;2024-02-21T13:39:24;100669.00;;;13.07;45.21
11672;BME280;5892;43.412;24.612;2024-02-21T13:47:00;100673.78;;;13.23;45.12
11672;BME280;5892;43.412;24.612;2024-02-21T13:49:25;100668.94;;;13.18;45.67
11672;BME280;5892;43.412;24.612;2024-02-21T13:51:51;100682.88;;;13.28;45.30
11672;BME280;5892;43.412;24.612;2024-02-21T13:54:16;100674.69;;;13.12;45.19
11672;BME280;5892;43.412;24.612;2024-02-21T13:56:45;100683.34;;;12.69;45.90
11672;BME280;5892;43.412;24.612;2024-02-21T13:59:12;100681.44;;;12.82;45.70
11672;BME280;5892;43.412;24.612;2024-02-21T14:01:39;100680.69;;;12.80;46.31
11672;BME280;5892;43.412;24.612;2024-02-21T14:04:04;100669.97;;;12.62;46.61
11672;BME280;5892;43.412;24.612;2024-02-21T14:06:29;100679.59;;;12.61;46.98
11672;BME280;5892;43.412;24.612;2024-02-21T14:08:55;100672.56;;;12.73;46.16
11672;BME280;5892;43.412;24.612;2024-02-21T14:11:20;100682.19;;;12.61;46.63
11672;BME280;5892;43.412;24.612;2024-02-21T14:13:46;100683.47;;;12.67;46.19
11672;BME280;5892;43.412;24.612;2024-02-21T14:16:11;100674.81;;;12.67;46.30
11672;BME280;5892;43.412;24.612;2024-02-21T14:18:39;100681.69;;;12.68;46.88
11672;BME280;5892;43.412;24.612;2024-02-21T14:21:06;100688.84;;;12.54;48.77
11672;BME280;5892;43.412;24.612;2024-02-21T14:23:32;100680.44;;;12.39;50.33
11672;BME280;5892;43.412;24.612;2024-02-21T14:25:59;100678.66;;;12.40;51.00
11672;BME280;5892;43.412;24.612;2024-02-21T14:28:24;100685.56;;;12.07;52.28
11672;BME280;5892;43.412;24.612;2024-02-21T14:30:50;100681.25;;;11.83;52.70
11672;BME280;5892;43.412;24.612;2024-02-21T14:33:19;100683.00;;;11.60;53.71
11672;BME280;5892;43.412;24.612;2024-02-21T14:35:44;100682.44;;;11.79;53.30
11672;BME280;5892;43.412;24.612;2024-02-21T14:38:10;100687.38;;;11.71;54.03
11672;BME280;5892;43.412;24.612;2024-02-21T14:40:35;100683.47;;;11.65;53.45
11672;BME280;5892;43.412;24.612;2024-02-21T14:43:00;100679.63;;;11.47;54.09
11672;BME280;5892;43.412;24.612;2024-02-21T14:45:26;100676.66;;;11.40;54.75
11672;BME280;5892;43.412;24.612;2024-02-21T14:47:51;100683.66;;;11.40;54.55
11672;BME280;5892;43.412;24.612;2024-02-21T14:50:17;100679.84;;;11.44;55.43
11672;BME280;5892;43.412;24.612;2024-02-21T14:52:42;100679.25;;;11.40;54.85
11672;BME280;5892;43.412;24.612;2024-02-21T14:55:09;100678.81;;;11.46;55.18
11672;BME280;5892;43.412;24.612;2024-02-21T14:57:34;100682.66;;;11.29;56.08
11672;BME280;5892;43.412;24.612;2024-02-21T15:00:01;100677.38;;;11.07;56.40
11672;BME280;5892;43.412;24.612;2024-02-21T15:02:28;100681.88;;;11.05;56.63
11672;BME280;5892;43.412;24.612;2024-02-21T15:04:53;100686.91;;;10.95;57.49
11672;BME280;5892;43.412;24.612;2024-02-21T15:07:22;100678.50;;;10.91;57.53
11672;BME280;5892;43.412;24.612;2024-02-21T15:09:53;100682.75;;;10.92;56.58
11672;BME280;5892;43.412;24.612;2024-02-21T15:12:18;100690.38;;;10.83;56.71